createdAt,value
2022-11-03T00:00:41.592Z,11.37
2022-11-03T00:06:02.237Z,11.42
2022-11-03T00:11:04.923Z,11.41
2022-11-03T00:16:08.147Z,11.34
2022-11-03T00:21:13.432Z,11.23
2022-11-03T00:26:23.435Z,11.14
2022-11-03T00:31:30.559Z,10.95
2022-11-03T00:36:35.885Z,10.76
2022-11-03T00:41:38.389Z,10.71
2022-11-03T00:46:40.240Z,10.68
2022-11-03T00:51:42.084Z,10.56
2022-11-03T00:56:44.497Z,10.53
2022-11-03T01:01:47.775Z,10.46
2022-11-03T01:06:53.632Z,10.28
2022-11-03T01:12:03.067Z,10.25
2022-11-03T01:17:14.295Z,10.31
2022-11-03T01:22:17.589Z,10.37
2022-11-03T01:27:20.968Z,10.37
2022-11-03T01:32:22.819Z,10.29
2022-11-03T01:37:25.423Z,10.18
2022-11-03T01:42:27.221Z,10.15
2022-11-03T01:47:35.264Z,10.16
2022-11-03T01:52:51.488Z,10.18
2022-11-03T01:57:59.946Z,10.14
2022-11-03T02:03:02.157Z,10.07
2022-11-03T02:13:24.607Z,10.01
2022-11-03T02:18:28.791Z,9.97
2022-11-03T02:23:39.986Z,9.89
2022-11-03T02:28:41.933Z,9.89
2022-11-03T02:33:49.043Z,9.90
2022-11-03T02:39:02.857Z,9.90
2022-11-03T02:44:14.661Z,9.89
2022-11-03T02:49:16.543Z,9.91
2022-11-03T02:54:26.119Z,9.94
2022-11-03T02:59:32.280Z,9.94
2022-11-03T03:04:48.773Z,10.00
2022-11-03T03:10:00.429Z,10.10
2022-11-03T03:15:04.272Z,10.13
2022-11-03T03:20:14.609Z,10.30
2022-11-03T03:25:43.626Z,10.47
2022-11-03T03:30:48.421Z,10.49
2022-11-03T03:35:52.872Z,10.41
2022-11-03T03:40:57.574Z,10.25
2022-11-03T03:46:07.290Z,10.05
2022-11-03T03:51:10.263Z,9.84
2022-11-03T03:56:12.146Z,9.66
2022-11-03T04:01:13.988Z,9.49
2022-11-03T04:06:15.866Z,9.41
2022-11-03T04:11:36.217Z,9.31
2022-11-03T04:16:56.414Z,9.16
2022-11-03T04:22:16.737Z,9.08
2022-11-03T04:27:27.458Z,9.05
2022-11-03T04:32:30.389Z,9.09
2022-11-03T04:37:32.176Z,9.09
2022-11-03T04:42:35.571Z,9.07
2022-11-03T04:47:37.361Z,9.04
2022-11-03T04:52:39.100Z,9.05
2022-11-03T04:57:40.871Z,9.07
2022-11-03T05:02:43.676Z,9.05
2022-11-03T05:07:48.397Z,9.05
2022-11-03T05:12:51.510Z,9.03
2022-11-03T05:17:53.347Z,8.95
2022-11-03T05:22:55.096Z,8.86
2022-11-03T05:27:56.891Z,8.76
2022-11-03T05:32:59.026Z,8.66
2022-11-03T05:38:03.434Z,8.63
2022-11-03T05:43:09.705Z,8.69
2022-11-03T05:48:19.840Z,8.56
2022-11-03T05:53:29.890Z,8.55
2022-11-03T05:58:40.236Z,8.47
2022-11-03T06:03:42.219Z,8.45
2022-11-03T06:08:46.097Z,8.48
2022-11-03T06:13:48.269Z,8.60
2022-11-03T06:18:50.072Z,8.82
2022-11-03T06:23:55.197Z,9.08
2022-11-03T06:28:57.193Z,9.22
2022-11-03T06:33:59.464Z,9.26
2022-11-03T06:39:09.777Z,9.37
2022-11-03T06:44:24.874Z,9.43
2022-11-03T06:49:35.049Z,9.49
2022-11-03T06:54:38.061Z,9.65
2022-11-03T06:59:39.973Z,9.82
2022-11-03T07:04:41.815Z,10.00
2022-11-03T07:09:44.000Z,10.15
2022-11-03T07:14:46.582Z,10.41
2022-11-03T07:19:48.627Z,10.74
2022-11-03T07:24:55.638Z,11.09
2022-11-03T07:30:11.655Z,11.31
2022-11-03T07:35:53.292Z,11.52
2022-11-03T07:40:58.047Z,11.73
2022-11-03T07:46:01.994Z,11.93
2022-11-03T07:51:22.360Z,12.17
2022-11-03T07:56:33.131Z,12.42
2022-11-03T08:01:44.941Z,12.70
2022-11-03T08:06:47.255Z,13.06
2022-11-03T08:11:50.536Z,13.40
2022-11-03T08:16:52.340Z,13.70
2022-11-03T08:21:54.149Z,13.95
2022-11-03T08:26:56.321Z,14.13
2022-11-03T08:31:58.202Z,14.43
2022-11-03T08:36:59.993Z,14.59
2022-11-03T08:42:01.787Z,14.85
2022-11-03T08:47:03.589Z,15.03
2022-11-03T08:52:05.484Z,15.09
2022-11-03T08:57:07.350Z,15.11
2022-11-03T09:02:09.378Z,15.24
2022-11-03T09:07:11.197Z,15.47
2022-11-03T09:12:13.100Z,15.63
2022-11-03T09:17:14.986Z,15.85
2022-11-03T09:22:16.909Z,16.16
2022-11-03T09:27:19.301Z,16.42
2022-11-03T09:32:23.588Z,16.73
2022-11-03T09:37:25.674Z,16.85
2022-11-03T09:42:27.571Z,16.91
2022-11-03T09:47:33.970Z,17.05
2022-11-03T09:52:37.274Z,17.09
2022-11-03T09:57:39.094Z,17.19
2022-11-03T10:02:43.382Z,17.22
2022-11-03T10:07:45.767Z,17.19
2022-11-03T10:12:49.930Z,17.29
2022-11-03T10:17:52.441Z,17.42
2022-11-03T10:22:55.363Z,17.52
2022-11-03T10:28:14.864Z,17.70
2022-11-03T10:33:34.491Z,17.82
2022-11-03T10:38:36.518Z,17.82
2022-11-03T10:43:39.651Z,17.68
2022-11-03T10:48:41.871Z,17.56
2022-11-03T10:53:43.842Z,17.44
2022-11-03T10:58:45.899Z,17.50
2022-11-03T11:03:47.867Z,17.58
2022-11-03T11:08:59.628Z,17.80
2022-11-03T11:14:21.665Z,18.01
2022-11-03T11:19:25.279Z,18.19
2022-11-03T11:24:46.424Z,18.39
2022-11-03T11:29:48.292Z,18.46
2022-11-03T11:34:50.101Z,18.46
2022-11-03T11:39:51.887Z,18.52
2022-11-03T11:44:58.902Z,18.55
2022-11-03T11:50:06.819Z,18.67
2022-11-03T11:55:37.087Z,18.76
2022-11-03T12:00:51.459Z,18.90
2022-11-03T12:05:53.337Z,18.98
2022-11-03T12:10:58.299Z,19.02
2022-11-03T12:16:00.223Z,19.07
2022-11-03T12:21:09.892Z,19.20
2022-11-03T12:26:16.070Z,19.14
2022-11-03T12:31:18.071Z,19.04
2022-11-03T12:36:19.885Z,19.05
2022-11-03T12:41:24.507Z,19.14
2022-11-03T12:46:26.713Z,19.05
2022-11-03T12:51:28.504Z,19.15
2022-11-03T12:56:30.284Z,19.41
2022-11-03T13:01:33.404Z,19.90
2022-11-03T13:06:35.429Z,20.42
2022-11-03T13:11:56.109Z,20.90
2022-11-03T13:16:57.928Z,21.09
2022-11-03T13:22:00.098Z,20.91
2022-11-03T13:27:01.977Z,21.03
2022-11-03T13:32:04.789Z,21.23
2022-11-03T13:37:06.704Z,21.04
2022-11-03T13:42:08.596Z,21.07
2022-11-03T13:47:11.892Z,20.67
2022-11-03T13:52:14.105Z,20.06
2022-11-03T14:07:59.454Z,18.34
2022-11-03T14:13:01.237Z,17.60
2022-11-03T14:18:03.053Z,17.06
2022-11-03T14:23:04.951Z,16.55
2022-11-03T14:28:07.194Z,16.13
2022-11-03T14:33:09.886Z,15.78
2022-11-03T14:38:11.936Z,15.52
2022-11-03T14:43:13.808Z,15.30
2022-11-03T14:48:15.617Z,15.13
2022-11-03T14:53:17.536Z,15.06
2022-11-03T14:58:19.340Z,15.00
2022-11-03T15:03:21.150Z,14.95
2022-11-03T15:08:24.014Z,14.80
2022-11-03T15:13:25.836Z,14.73
2022-11-03T15:18:27.678Z,14.63
2022-11-03T15:28:51.413Z,14.50
2022-11-03T15:33:53.635Z,14.37
2022-11-03T15:38:55.440Z,14.30
2022-11-03T15:43:57.252Z,14.26
2022-11-03T15:48:59.079Z,14.28
2022-11-03T15:54:01.013Z,14.25
2022-11-03T15:59:02.843Z,14.24
2022-11-03T16:04:04.715Z,14.22
2022-11-03T16:09:06.533Z,14.18
2022-11-03T16:14:08.344Z,14.14
2022-11-03T16:19:10.499Z,14.10
2022-11-03T16:24:12.492Z,14.10
2022-11-03T16:29:14.286Z,14.17
2022-11-03T16:34:17.236Z,14.20
2022-11-03T16:39:19.123Z,14.23
2022-11-03T16:44:21.023Z,14.32
2022-11-03T16:49:22.962Z,14.38
2022-11-03T16:54:24.788Z,14.39
2022-11-03T16:59:26.648Z,14.38
2022-11-03T17:04:28.483Z,14.40
2022-11-03T17:09:30.301Z,14.41
2022-11-03T17:14:32.160Z,14.44
2022-11-03T17:19:33.971Z,14.41
2022-11-03T17:24:35.954Z,14.42
2022-11-03T17:29:44.584Z,14.44
2022-11-03T17:34:46.523Z,14.45
2022-11-03T17:39:48.461Z,14.52
2022-11-03T17:44:51.968Z,14.58
2022-11-03T17:49:53.765Z,14.62
2022-11-03T17:54:58.339Z,14.71
2022-11-03T18:00:01.090Z,14.71
2022-11-03T18:05:14.176Z,14.72
2022-11-03T18:10:19.065Z,14.71
2022-11-03T18:15:23.727Z,14.65
2022-11-03T18:20:29.337Z,14.67
2022-11-03T18:25:31.263Z,14.64
2022-11-03T18:30:33.300Z,14.67
2022-11-03T18:35:35.744Z,14.71
2022-11-03T18:40:38.891Z,14.74
2022-11-03T18:45:40.888Z,14.73
2022-11-03T18:50:43.324Z,14.77
2022-11-03T18:55:45.977Z,14.77
2022-11-03T19:00:48.679Z,14.80
2022-11-03T19:05:53.235Z,14.81
2022-11-03T19:10:57.229Z,14.87
2022-11-03T19:16:01.604Z,14.92
2022-11-03T19:21:11.762Z,14.92
2022-11-03T19:26:35.792Z,15.06
2022-11-03T19:31:42.886Z,15.00
2022-11-03T19:36:46.431Z,15.01
2022-11-03T19:42:06.817Z,14.86
2022-11-03T19:47:15.345Z,14.76
2022-11-03T19:52:18.257Z,14.66
2022-11-03T19:57:20.419Z,14.65
2022-11-03T20:02:23.800Z,14.62
2022-11-03T20:07:31.576Z,14.62
2022-11-03T20:12:33.904Z,14.55
2022-11-03T20:17:35.780Z,14.54
2022-11-03T20:22:40.725Z,14.51
2022-11-03T20:27:42.615Z,14.44
2022-11-03T20:32:46.143Z,14.41
2022-11-03T20:37:52.440Z,14.38
2022-11-03T20:42:56.965Z,14.36
2022-11-03T20:47:58.929Z,14.36
2022-11-03T20:53:00.821Z,14.38
2022-11-03T20:58:02.637Z,14.33
2022-11-03T21:03:31.422Z,14.35
2022-11-03T21:08:37.138Z,14.36
2022-11-03T21:13:39.046Z,14.27
2022-11-03T21:18:59.403Z,14.21
2022-11-03T21:24:01.315Z,14.20
2022-11-03T21:29:03.262Z,14.22
2022-11-03T21:34:05.223Z,14.24
2022-11-03T21:39:07.039Z,14.24
2022-11-03T21:44:14.979Z,14.25
2022-11-03T21:49:35.607Z,14.22
2022-11-03T21:54:38.323Z,14.23
2022-11-03T21:59:40.189Z,14.26
2022-11-03T22:04:42.447Z,14.27
2022-11-03T22:09:44.296Z,14.29
2022-11-03T22:15:04.458Z,14.28
2022-11-03T22:20:25.109Z,14.31
2022-11-03T22:25:45.632Z,14.31
2022-11-03T22:31:06.433Z,14.29
2022-11-03T22:36:26.067Z,14.37
2022-11-03T22:41:46.836Z,14.38
2022-11-03T22:46:48.524Z,14.37
2022-11-03T22:51:50.327Z,14.31
2022-11-03T22:56:52.681Z,14.29
2022-11-03T23:01:54.645Z,14.24
2022-11-03T23:06:56.548Z,14.25
2022-11-03T23:11:58.357Z,14.24
2022-11-03T23:17:00.157Z,14.22
2022-11-03T23:22:02.028Z,14.20
2022-11-03T23:27:05.198Z,14.16
2022-11-03T23:32:07.244Z,14.08
2022-11-03T23:37:09.119Z,14.08
2022-11-03T23:42:10.924Z,14.08
2022-11-03T23:47:31.499Z,14.07
2022-11-03T23:52:33.318Z,14.05
2022-11-03T23:57:54.419Z,14.06
